aviador You're here:

TBPB Decoded Metar

BRIDGETOWN in BARBADOS
Report Time2018-02-20 13:00:00
UTC Time2018-02-20 13:53:42
Flight Rules vfr VFR
Wind090° at 22 kt
W.Decomp.*RWY 09: 21.3 kt HW 5.7 kt RCW
W.Rank090° ranks 1
Current wind is above 090° avg. (14.3)
Visibility9999 m
Phenomena:Vicinity showers
Clouds:Scattered 016 Hf
Expected CloudBase > 2,000 ft AGL from Temp-Dew spread
CeilingNone
Temp26°C (ISA +11)
Dew Point21°C (74% RH)
AAT22.3°C
QNH1017 hPa
Density Alt1,677 ft
Elevation171 ft
Report Wrong Elevation
Raw Report
METAR TBPB 201300Z 09022KT 9999 VCSH SCT016 26/21 Q1017 NOSIG=

Extra information for TBPB:More info

Metar Taf Metar & Taf Last 4 Metars F.Rules Stats Wind Profile Meteogram Temp Stats Airport Information Weather charts Add Link Nearby VenuesMetar ALERT Operation Metar Decoded Social comments